Time;durP1;ratioP1;P1;durP2;ratioP2;P2;SDS_P1;SDS_P2;PMS_P1;PMS_P2;Temp;Humidity;BMP_temperature;BMP_pressure;BME280_temperature;BME280_humidity;BME280_pressure;Samples;Min_cycle;Max_cycle;Signal;HPM_P1;HPM_P2
2021/12/14 00:01:51;;;;;;;11.27;7.53;;;;;;;;;;5065731;28;20036;-61
2021/12/14 00:04:18;;;;;;;15.38;8.35;;;;;;;;;;5054195;28;20075;-61
2021/12/14 00:06:45;;;;;;;14.90;7.72;;;;;;;;;;5053925;28;20036;-61
2021/12/14 00:09:20;;;;;;;14.38;7.35;;;;;;;;;;5070877;28;20059;-61
2021/12/14 00:11:54;;;;;;;11.82;7.78;;;;;;;;;;5072246;28;20036;-61
2021/12/14 00:17:20;;;;;;;12.32;8.00;;;;;;;;;;5037925;28;20091;-62
2021/12/14 00:19:46;;;;;;;14.80;8.00;;;;;;;;;;5071901;28;20032;-64
2021/12/14 00:24:55;;;;;;;17.23;9.50;;;;;;;;;;5071775;28;20040;-61
2021/12/14 00:27:22;;;;;;;14.52;10.43;;;;;;;;;;5071683;28;20033;-62
2021/12/14 00:29:50;;;;;;;19.42;10.65;;;;;;;;;;5037061;28;20043;-62
2021/12/14 00:32:19;;;;;;;16.92;10.57;;;;;;;;;;5037452;28;20492;-62
2021/12/14 00:34:45;;;;;;;;;;;;;;;;;;5037923;28;20502;-62
2021/12/14 00:37:13;;;;;;;13.70;9.93;;;;;;;;;;5054153;28;19951;-61
2021/12/14 00:39:39;;;;;;;18.45;10.68;;;;;;;;;;5037173;28;20032;-60
2021/12/14 00:42:04;;;;;;;17.27;10.65;;;;;;;;;;5071560;28;20036;-61
2021/12/14 00:44:30;;;;;;;20.33;12.75;;;;;;;;;;5071445;28;20044;-61
2021/12/14 00:46:55;;;;;;;22.00;12.07;;;;;;;;;;5071639;28;20040;-60
2021/12/14 00:49:21;;;;;;;22.05;12.15;;;;;;;;;;5053632;28;20072;-61
2021/12/14 00:51:46;;;;;;;21.63;11.50;;;;;;;;;;5071480;28;20044;-63
2021/12/14 00:54:13;;;;;;;20.60;11.02;;;;;;;;;;5071699;28;20043;-61
2021/12/14 00:56:40;;;;;;;17.73;11.45;;;;;;;;;;5071275;28;20037;-61
2021/12/14 00:59:06;;;;;;;19.75;11.13;;;;;;;;;;5071220;28;20040;-61
2021/12/14 01:01:33;;;;;;;17.92;11.18;;;;;;;;;;5052969;28;20039;-62
2021/12/14 01:04:03;;;;;;;19.40;10.90;;;;;;;;;;5053213;28;20032;-62
2021/12/14 01:06:32;;;;;;;15.98;10.13;;;;;;;;;;5053341;28;20033;-61
2021/12/14 01:08:58;;;;;;;17.85;10.52;;;;;;;;;;5072065;28;20545;-61
2021/12/14 01:11:28;;;;;;;22.05;10.88;;;;;;;;;;5056876;28;20028;-61
2021/12/14 01:14:00;;;;;;;19.52;11.30;;;;;;;;;;5040347;28;20033;-61
2021/12/14 01:16:47;;;;;;;15.25;10.40;;;;;;;;;;5040289;28;20479;-61
2021/12/14 01:19:16;;;;;;;18.95;10.35;;;;;;;;;;5056919;28;20135;-61
2021/12/14 01:27:11;;;;;;;18.15;10.95;;;;;;;;;;5056424;28;20086;-60
2021/12/14 01:29:38;;;;;;;17.30;11.15;;;;;;;;;;5056435;28;20063;-60
2021/12/14 01:32:05;;;;;;;17.67;10.98;;;;;;;;;;5039847;28;20031;-62
2021/12/14 01:34:32;;;;;;;21.02;12.13;;;;;;;;;;5056209;28;20036;-61
2021/12/14 01:37:02;;;;;;;18.50;11.93;;;;;;;;;;5056212;28;20097;-61
2021/12/14 01:41:58;;;;;;;17.38;11.18;;;;;;;;;;5056479;28;20127;-61
2021/12/14 01:44:27;;;;;;;16.50;11.18;;;;;;;;;;5056293;28;20448;-61
2021/12/14 01:46:56;;;;;;;19.42;11.23;;;;;;;;;;5039902;28;20032;-62
2021/12/14 01:49:38;;;;;;;20.08;10.65;;;;;;;;;;5056345;28;20032;-61
2021/12/14 01:52:26;;;;;;;16.30;9.57;;;;;;;;;;5073382;28;20399;-61
2021/12/14 01:54:54;;;;;;;20.75;10.48;;;;;;;;;;5056260;28;20043;-61
2021/12/14 01:57:21;;;;;;;18.73;10.27;;;;;;;;;;5039507;28;20036;-61
2021/12/14 01:59:47;;;;;;;15.63;10.10;;;;;;;;;;5055871;28;20404;-61
2021/12/14 02:04:46;;;;;;;16.80;9.90;;;;;;;;;;5072823;28;20396;-62
2021/12/14 02:07:12;;;;;;;14.45;9.23;;;;;;;;;;5055809;28;20043;-63
2021/12/14 02:09:42;;;;;;;17.52;9.00;;;;;;;;;;5055953;28;20087;-61
2021/12/14 02:12:19;;;;;;;15.60;9.45;;;;;;;;;;5055532;28;20388;-62
2021/12/14 02:14:46;;;;;;;13.52;9.70;;;;;;;;;;5055759;28;20032;-61
2021/12/14 02:17:14;;;;;;;18.48;10.35;;;;;;;;;;5055667;28;20016;-61
2021/12/14 02:19:41;;;;;;;15.60;9.93;;;;;;;;;;5055606;28;20044;-61
2021/12/14 02:22:07;;;;;;;19.23;9.98;;;;;;;;;;5055805;28;20056;-61
2021/12/14 02:24:34;;;;;;;19.73;12.07;;;;;;;;;;5055959;28;20127;-62
2021/12/14 02:27:00;;;;;;;16.25;9.52;;;;;;;;;;5038856;28;20464;-61
2021/12/14 02:29:30;;;;;;;17.63;10.18;;;;;;;;;;5073693;28;20120;-62
2021/12/14 02:32:01;;;;;;;17.17;10.23;;;;;;;;;;5055539;28;20392;-60
2021/12/14 02:34:26;;;;;;;15.55;9.35;;;;;;;;;;5055547;28;20042;-59
2021/12/14 02:36:52;;;;;;;12.80;8.93;;;;;;;;;;5055484;28;20434;-62
2021/12/14 02:39:45;;;;;;;15.98;9.35;;;;;;;;;;5072151;28;20040;-62
2021/12/14 02:42:12;;;;;;;13.90;9.10;;;;;;;;;;5055454;28;20033;-61
2021/12/14 02:44:37;;;;;;;14.02;8.43;;;;;;;;;;5055558;28;20062;-62
2021/12/14 02:47:06;;;;;;;15.02;9.68;;;;;;;;;;5072003;28;20043;-61
2021/12/14 02:49:34;;;;;;;11.40;7.80;;;;;;;;;;5055371;28;20123;-62
2021/12/14 02:52:05;;;;;;;13.00;7.80;;;;;;;;;;5055039;28;20036;-62
2021/12/14 02:54:33;;;;;;;15.45;8.43;;;;;;;;;;5055287;28;20546;-62
2021/12/14 02:57:01;;;;;;;12.57;7.95;;;;;;;;;;5071634;28;20043;-61
2021/12/14 02:59:28;;;;;;;14.63;8.63;;;;;;;;;;5055016;28;20480;-62
2021/12/14 03:01:55;;;;;;;10.38;6.80;;;;;;;;;;5055138;28;20036;-62
2021/12/14 03:04:21;;;;;;;15.18;7.68;;;;;;;;;;5038618;28;20036;-61
2021/12/14 03:06:50;;;;;;;12.55;8.13;;;;;;;;;;5055050;28;20097;-61
2021/12/14 03:09:52;;;;;;;13.90;8.55;;;;;;;;;;5055136;28;20032;-61
2021/12/14 03:12:05;;;;;;;13.27;8.07;;;;;;;;;;5072697;28;20056;-61
2021/12/14 03:14:30;;;;;;;10.93;6.93;;;;;;;;;;5055012;28;20170;-60
2021/12/14 03:16:56;;;;;;;13.88;7.45;;;;;;;;;;5054769;28;20089;-62
2021/12/14 03:19:21;;;;;;;13.60;8.05;;;;;;;;;;5054553;28;20044;-62
2021/12/14 03:21:48;;;;;;;15.57;7.25;;;;;;;;;;5072595;28;20036;-60
2021/12/14 03:24:15;;;;;;;15.13;8.07;;;;;;;;;;5038155;28;20024;-62
2021/12/14 03:26:43;;;;;;;14.85;8.60;;;;;;;;;;5054645;28;20041;-61
2021/12/14 03:29:11;;;;;;;16.83;8.07;;;;;;;;;;5054858;28;20029;-62
2021/12/14 03:31:41;;;;;;;13.55;9.02;;;;;;;;;;5054019;28;20064;-62
2021/12/14 03:34:14;;;;;;;15.55;9.05;;;;;;;;;;5054671;28;20067;-62
2021/12/14 03:36:43;;;;;;;16.73;8.73;;;;;;;;;;5038210;28;20036;-61
2021/12/14 03:39:38;;;;;;;16.75;8.77;;;;;;;;;;5054875;28;20063;-61
2021/12/14 03:42:14;;;;;;;14.82;7.88;;;;;;;;;;5055291;28;20447;-61
2021/12/14 03:44:53;;;;;;;16.95;9.20;;;;;;;;;;5054511;28;20044;-61
2021/12/14 03:47:29;;;;;;;16.35;8.63;;;;;;;;;;5054579;28;20129;-60
2021/12/14 03:50:15;;;;;;;17.00;7.78;;;;;;;;;;5054316;28;20040;-61
2021/12/14 03:52:42;;;;;;;15.90;9.05;;;;;;;;;;5053578;28;20400;-62
2021/12/14 03:55:21;;;;;;;19.35;9.75;;;;;;;;;;5054674;28;20025;-62
2021/12/14 03:57:49;;;;;;;15.18;8.00;;;;;;;;;;5054275;28;20557;-62
2021/12/14 04:00:22;;;;;;;15.93;8.20;;;;;;;;;;5054435;28;20036;-61
2021/12/14 04:02:49;;;;;;;14.02;8.10;;;;;;;;;;5068278;28;20120;-61
2021/12/14 04:05:20;;;;;;;15.10;8.45;;;;;;;;;;5050649;28;20078;-61
2021/12/14 04:07:46;;;;;;;15.55;8.32;;;;;;;;;;5068022;28;20047;-65
2021/12/14 04:10:19;;;;;;;13.13;7.75;;;;;;;;;;5050231;28;20396;-61
2021/12/14 04:12:44;;;;;;;16.15;9.15;;;;;;;;;;5050279;28;20032;-61
2021/12/14 04:15:11;;;;;;;16.63;9.00;;;;;;;;;;5050076;28;20036;-61
2021/12/14 04:17:38;;;;;;;17.08;8.60;;;;;;;;;;5050155;28;20093;-62
2021/12/14 04:20:26;;;;;;;16.48;8.15;;;;;;;;;;5049870;28;20471;-63
2021/12/14 04:22:52;;;;;;;18.95;9.55;;;;;;;;;;5050346;28;20037;-62
2021/12/14 04:25:21;;;;;;;15.65;8.80;;;;;;;;;;5050036;28;20039;-63
2021/12/14 04:27:47;;;;;;;18.60;9.07;;;;;;;;;;5048061;28;20040;-62
2021/12/14 04:30:17;;;;;;;18.65;8.20;;;;;;;;;;5047717;28;20025;-61
2021/12/14 04:32:50;;;;;;;13.80;7.80;;;;;;;;;;5047647;28;20123;-62
2021/12/14 04:35:16;;;;;;;12.82;8.32;;;;;;;;;;5065952;28;20025;-62
2021/12/14 04:37:44;;;;;;;13.88;8.30;;;;;;;;;;5048235;28;20048;-67
2021/12/14 04:40:21;;;;;;;13.77;8.25;;;;;;;;;;5032008;28;20519;-65
2021/12/14 04:54:02;;;;;;;14.30;7.43;;;;;;;;;;5071235;28;20433;-66
2021/12/14 04:56:31;;;;;;;12.43;7.38;;;;;;;;;;5053033;28;20373;-62
2021/12/14 04:59:00;;;;;;;14.73;7.47;;;;;;;;;;5052964;28;20404;-61
2021/12/14 05:01:26;;;;;;;12.85;6.85;;;;;;;;;;5052236;28;20051;-61
2021/12/14 05:04:00;;;;;;;10.85;6.50;;;;;;;;;;5052960;28;20488;-62
2021/12/14 05:06:43;;;;;;;13.95;7.60;;;;;;;;;;5053133;28;20032;-61
2021/12/14 05:09:23;;;;;;;12.93;7.32;;;;;;;;;;5053001;28;20033;-61
2021/12/14 05:12:09;;;;;;;12.32;7.13;;;;;;;;;;5055281;28;20045;-60
2021/12/14 05:14:44;;;;;;;12.55;6.78;;;;;;;;;;5053259;28;20130;-62
2021/12/14 05:17:11;;;;;;;12.13;6.70;;;;;;;;;;5069846;28;20044;-64
2021/12/14 05:19:39;;;;;;;15.15;7.22;;;;;;;;;;5052956;28;20147;-62
2021/12/14 05:22:07;;;;;;;11.82;7.40;;;;;;;;;;5052521;28;20040;-61
2021/12/14 05:24:42;;;;;;;12.80;7.05;;;;;;;;;;5051905;28;20044;-66
2021/12/14 05:27:09;;;;;;;11.15;6.60;;;;;;;;;;5053016;28;20040;-61
2021/12/14 05:29:40;;;;;;;11.07;6.65;;;;;;;;;;5069645;28;20093;-63
2021/12/14 05:32:07;;;;;;;14.35;7.75;;;;;;;;;;5051027;28;20036;-61
2021/12/14 05:34:33;;;;;;;16.90;7.90;;;;;;;;;;5050475;28;20043;-64
2021/12/14 05:37:05;;;;;;;11.77;6.93;;;;;;;;;;5034692;28;20024;-62
2021/12/14 05:44:41;;;;;;;16.00;7.38;;;;;;;;;;5068759;28;20044;-66
2021/12/14 05:47:10;;;;;;;17.83;9.02;;;;;;;;;;5052388;28;20040;-61
2021/12/14 05:49:54;;;;;;;18.58;9.10;;;;;;;;;;5052937;28;20040;-62
2021/12/14 05:52:22;;;;;;;17.58;8.50;;;;;;;;;;5052163;28;20032;-61
2021/12/14 05:54:48;;;;;;;15.25;8.43;;;;;;;;;;5051340;28;20045;-61
2021/12/14 05:57:17;;;;;;;20.42;8.07;;;;;;;;;;5052430;28;20069;-62
2021/12/14 05:59:43;;;;;;;17.73;8.13;;;;;;;;;;5052363;28;20044;-61
2021/12/14 06:02:10;;;;;;;27.48;8.43;;;;;;;;;;5052273;28;20124;-63
2021/12/14 06:04:39;;;;;;;25.02;8.27;;;;;;;;;;5051977;28;20484;-61
2021/12/14 06:07:05;;;;;;;18.02;9.15;;;;;;;;;;5052015;28;20037;-61
2021/12/14 06:09:33;;;;;;;15.95;9.13;;;;;;;;;;5052285;28;20086;-61
2021/12/14 06:12:06;;;;;;;18.83;8.65;;;;;;;;;;5069266;28;20113;-61
2021/12/14 06:14:32;;;;;;;15.27;8.20;;;;;;;;;;5052113;28;20537;-62
2021/12/14 06:16:59;;;;;;;13.05;7.82;;;;;;;;;;5051799;28;20044;-63
2021/12/14 06:19:30;;;;;;;19.33;7.85;;;;;;;;;;5052265;28;20036;-61
2021/12/14 06:22:00;;;;;;;17.45;8.32;;;;;;;;;;5052330;28;20046;-61
2021/12/14 06:24:27;;;;;;;27.73;8.90;;;;;;;;;;5051965;28;20491;-62
2021/12/14 06:26:55;;;;;;;19.48;8.40;;;;;;;;;;5051757;28;20036;-62
2021/12/14 06:29:26;;;;;;;20.20;8.82;;;;;;;;;;5068520;28;20037;-62
2021/12/14 06:31:53;;;;;;;12.02;7.63;;;;;;;;;;5051898;28;20037;-64
2021/12/14 06:34:25;;;;;;;16.20;7.85;;;;;;;;;;5051883;28;20047;-62
2021/12/14 06:37:03;;;;;;;15.15;8.38;;;;;;;;;;5051854;28;20063;-62
2021/12/14 06:39:50;;;;;;;23.10;9.43;;;;;;;;;;5051564;28;20040;-61
2021/12/14 06:42:17;;;;;;;18.35;8.13;;;;;;;;;;5051427;28;20773;-61
2021/12/14 06:44:42;;;;;;;15.90;8.90;;;;;;;;;;5051293;28;20041;-61
2021/12/14 06:47:08;;;;;;;16.70;9.15;;;;;;;;;;5068007;28;20044;-61
2021/12/14 06:49:33;;;;;;;19.90;9.27;;;;;;;;;;5051362;28;20033;-62
2021/12/14 06:51:59;;;;;;;20.20;8.43;;;;;;;;;;5051825;28;20073;-61
2021/12/14 06:54:31;;;;;;;21.13;9.30;;;;;;;;;;5051704;28;20682;-61
2021/12/14 06:57:23;;;;;;;16.20;8.15;;;;;;;;;;5037823;28;20048;-63
2021/12/14 06:59:56;;;;;;;17.05;8.45;;;;;;;;;;5067972;28;20189;-62
2021/12/14 07:02:26;;;;;;;20.38;9.10;;;;;;;;;;5051118;28;20040;-62
2021/12/14 07:05:17;;;;;;;23.80;8.52;;;;;;;;;;5051284;28;20024;-62
2021/12/14 07:07:46;;;;;;;15.63;8.10;;;;;;;;;;5050472;28;20048;-62
2021/12/14 07:10:14;;;;;;;18.90;8.32;;;;;;;;;;5051168;28;20512;-61
2021/12/14 07:12:40;;;;;;;22.48;8.60;;;;;;;;;;5050909;28;20037;-64
2021/12/14 07:15:15;;;;;;;15.48;8.15;;;;;;;;;;5067928;28;20041;-61
2021/12/14 07:17:45;;;;;;;16.77;7.65;;;;;;;;;;5050928;28;20094;-62
2021/12/14 07:20:13;;;;;;;20.48;7.60;;;;;;;;;;5050766;28;20643;-62
2021/12/14 07:22:39;;;;;;;22.85;7.70;;;;;;;;;;5068788;28;20043;-61
2021/12/14 07:25:04;;;;;;;14.27;6.80;;;;;;;;;;5068872;28;20017;-62
2021/12/14 07:27:30;;;;;;;13.45;7.15;;;;;;;;;;5068854;28;20144;-65
2021/12/14 07:30:14;;;;;;;15.23;6.82;;;;;;;;;;5068853;28;20027;-62
2021/12/14 07:32:42;;;;;;;17.88;6.95;;;;;;;;;;5068519;28;20127;-62
2021/12/14 07:35:27;;;;;;;17.73;6.47;;;;;;;;;;5068917;28;20028;-62
2021/12/14 07:37:56;;;;;;;16.45;6.22;;;;;;;;;;5068793;28;20054;-61
2021/12/14 07:40:23;;;;;;;23.05;7.38;;;;;;;;;;5050777;28;20054;-62
2021/12/14 07:42:48;;;;;;;13.38;6.22;;;;;;;;;;5050287;28;20066;-61
2021/12/14 07:45:23;;;;;;;12.02;6.55;;;;;;;;;;5068556;28;20421;-61
2021/12/14 07:47:50;;;;;;;14.45;7.47;;;;;;;;;;5067904;28;20037;-62
2021/12/14 07:50:15;;;;;;;13.40;7.10;;;;;;;;;;5068600;28;20017;-62
2021/12/14 07:52:41;;;;;;;14.50;6.85;;;;;;;;;;5068753;28;20433;-62
2021/12/14 07:55:14;;;;;;;10.23;6.68;;;;;;;;;;5068183;28;20032;-62
2021/12/14 07:57:40;;;;;;;13.45;6.43;;;;;;;;;;5050720;28;20036;-62
2021/12/14 08:00:07;;;;;;;16.13;7.30;;;;;;;;;;5066723;28;20031;-59
2021/12/14 08:02:40;;;;;;;9.70;5.85;;;;;;;;;;5050239;28;20515;-62
2021/12/14 08:05:14;;;;;;;11.40;5.90;;;;;;;;;;5064598;28;20033;-62
2021/12/14 08:07:47;;;;;;;12.30;6.03;;;;;;;;;;5066960;28;20029;-61
2021/12/14 08:10:16;;;;;;;13.82;6.78;;;;;;;;;;5067121;28;20028;-62
2021/12/14 08:12:48;;;;;;;12.03;7.00;;;;;;;;;;5066464;28;20095;-63
2021/12/14 08:15:13;;;;;;;15.95;6.97;;;;;;;;;;5066845;28;20040;-61
2021/12/14 08:17:39;;;;;;;16.05;7.18;;;;;;;;;;5068469;28;20383;-64
2021/12/14 08:20:07;;;;;;;15.93;8.20;;;;;;;;;;5071585;28;20060;-63
2021/12/14 08:22:34;;;;;;;22.17;8.65;;;;;;;;;;5069972;28;20131;-63
2021/12/14 08:25:00;;;;;;;12.27;7.07;;;;;;;;;;5070038;28;20032;-63
2021/12/14 08:27:27;;;;;;;15.68;7.60;;;;;;;;;;5070280;28;20035;-63
2021/12/14 08:30:01;;;;;;;17.33;7.18;;;;;;;;;;5087069;28;20036;-63
2021/12/14 08:32:32;;;;;;;18.42;7.30;;;;;;;;;;5052702;28;20070;-67
2021/12/14 08:34:59;;;;;;;18.98;9.00;;;;;;;;;;5069044;28;20032;-66
2021/12/14 08:37:30;;;;;;;18.88;8.35;;;;;;;;;;5069222;28;20035;-65
2021/12/14 08:40:00;;;;;;;17.27;8.18;;;;;;;;;;5060423;28;20126;-63
2021/12/14 08:42:35;;;;;;;16.77;8.05;;;;;;;;;;5073426;28;20036;-66
2021/12/14 08:45:24;;;;;;;13.43;6.70;;;;;;;;;;5088645;28;20032;-65
2021/12/14 08:47:51;;;;;;;12.70;7.13;;;;;;;;;;5091517;28;20044;-64
2021/12/14 08:50:16;;;;;;;11.07;5.90;;;;;;;;;;5091503;28;20038;-64
2021/12/14 08:52:42;;;;;;;9.60;6.15;;;;;;;;;;5090910;28;20023;-64
2021/12/14 08:55:09;;;;;;;13.40;6.80;;;;;;;;;;5090327;28;20513;-64
2021/12/14 08:57:35;;;;;;;11.18;6.35;;;;;;;;;;5088287;28;20039;-66
2021/12/14 09:00:07;;;;;;;9.10;6.45;;;;;;;;;;5089003;28;20033;-65
2021/12/14 09:02:32;;;;;;;11.57;6.95;;;;;;;;;;5089870;28;20039;-67
2021/12/14 09:05:02;;;;;;;15.45;6.55;;;;;;;;;;5089512;28;20028;-66
2021/12/14 09:07:29;;;;;;;15.63;8.63;;;;;;;;;;5089662;28;20035;-65
2021/12/14 09:09:56;;;;;;;13.95;8.15;;;;;;;;;;5090008;28;20753;-64
2021/12/14 09:12:29;;;;;;;17.35;7.30;;;;;;;;;;5090863;28;20114;-64
2021/12/14 09:14:56;;;;;;;11.50;5.82;;;;;;;;;;5073147;28;20036;-65
2021/12/14 09:17:23;;;;;;;9.40;6.07;;;;;;;;;;5058923;28;20119;-66
2021/12/14 09:19:51;;;;;;;14.48;6.82;;;;;;;;;;5033897;28;20029;-66
2021/12/14 09:22:21;;;;;;;22.48;14.95;;;;;;;;;;5068845;28;20028;-65
2021/12/14 09:24:46;;;;;;;13.55;8.93;;;;;;;;;;5031300;28;20484;-67
2021/12/14 09:27:14;;;;;;;23.95;13.20;;;;;;;;;;5068538;28;20052;-66
2021/12/14 09:29:40;;;;;;;9.18;6.40;;;;;;;;;;5066772;28;20028;-66
2021/12/14 09:32:08;;;;;;;11.90;7.50;;;;;;;;;;5049363;28;20117;-67
2021/12/14 09:34:34;;;;;;;14.98;6.78;;;;;;;;;;5066223;28;20551;-69
2021/12/14 09:37:00;;;;;;;13.52;6.70;;;;;;;;;;5067253;28;20036;-68
2021/12/14 09:39:30;;;;;;;10.68;6.82;;;;;;;;;;5067434;28;20429;-68
2021/12/14 09:41:57;;;;;;;13.70;7.05;;;;;;;;;;5049457;28;20037;-68
2021/12/14 09:44:24;;;;;;;12.65;6.57;;;;;;;;;;5049259;28;20016;-67
2021/12/14 09:46:50;;;;;;;9.45;6.57;;;;;;;;;;5050723;28;20105;-67
2021/12/14 09:49:16;;;;;;;9.70;6.60;;;;;;;;;;5051427;28;20178;-66
2021/12/14 09:51:47;;;;;;;9.48;6.65;;;;;;;;;;5050797;28;20040;-66
2021/12/14 09:54:14;;;;;;;12.80;6.60;;;;;;;;;;5068982;28;20557;-67
2021/12/14 09:56:42;;;;;;;10.60;7.10;;;;;;;;;;5068661;28;20056;-66
2021/12/14 09:59:08;;;;;;;11.38;7.05;;;;;;;;;;5069044;28;20032;-65
2021/12/14 10:01:37;;;;;;;9.85;6.50;;;;;;;;;;5069038;28;20488;-70
2021/12/14 10:04:05;;;;;;;10.18;6.60;;;;;;;;;;5068723;28;20064;-68
2021/12/14 10:06:32;;;;;;;9.88;6.60;;;;;;;;;;5069189;28;20082;-66
2021/12/14 10:09:02;;;;;;;11.75;6.78;;;;;;;;;;5068473;28;20093;-70
2021/12/14 10:14:21;;;;;;;12.30;7.47;;;;;;;;;;5060469;28;20056;-66
2021/12/14 10:16:47;;;;;;;10.63;7.85;;;;;;;;;;5067876;28;20526;-66
2021/12/14 10:19:15;;;;;;;10.68;7.88;;;;;;;;;;5068572;28;20514;-66
2021/12/14 10:21:43;;;;;;;9.25;6.97;;;;;;;;;;5051047;28;20491;-66
2021/12/14 10:24:08;;;;;;;9.05;7.30;;;;;;;;;;5067688;28;20020;-67
2021/12/14 10:26:36;;;;;;;10.23;6.75;;;;;;;;;;5068415;28;20039;-67
2021/12/14 10:29:02;;;;;;;7.75;5.80;;;;;;;;;;5048824;28;20025;-67
2021/12/14 10:31:37;;;;;;;7.22;4.40;;;;;;;;;;5048939;28;20040;-66
2021/12/14 10:34:08;;;;;;;7.38;5.00;;;;;;;;;;5064801;28;20885;-67
2021/12/14 10:36:40;;;;;;;6.75;5.03;;;;;;;;;;5049062;28;20602;-69
2021/12/14 10:44:28;;;;;;;11.70;4.55;;;;;;;;;;5065760;28;20123;-67
2021/12/14 10:46:54;;;;;;;5.05;3.47;;;;;;;;;;5047666;28;20035;-68
2021/12/14 10:49:21;;;;;;;8.50;5.22;;;;;;;;;;5048308;28;20040;-67
2021/12/14 10:51:48;;;;;;;8.85;5.28;;;;;;;;;;5068669;28;20048;-65
2021/12/14 10:54:15;;;;;;;6.82;5.18;;;;;;;;;;5069300;28;20040;-70
2021/12/14 10:56:46;;;;;;;7.72;6.00;;;;;;;;;;5066575;28;20040;-66
2021/12/14 10:59:13;;;;;;;8.90;6.20;;;;;;;;;;5050253;28;20040;-66
2021/12/14 11:01:39;;;;;;;7.45;6.32;;;;;;;;;;5050414;28;20070;-70
2021/12/14 11:04:07;;;;;;;10.25;6.78;;;;;;;;;;5066466;28;20860;-66
2021/12/14 11:06:34;;;;;;;9.85;6.43;;;;;;;;;;5067797;28;20044;-66
2021/12/14 11:11:39;;;;;;;9.07;6.10;;;;;;;;;;5068599;28;20067;-65
2021/12/14 11:14:06;;;;;;;10.30;5.38;;;;;;;;;;5050721;28;20442;-65
2021/12/14 11:19:44;;;;;;;8.40;5.22;;;;;;;;;;5068965;28;20075;-64
2021/12/14 11:22:14;;;;;;;7.72;5.18;;;;;;;;;;5068889;28;20036;-64
2021/12/14 11:24:41;;;;;;;6.10;4.93;;;;;;;;;;5050877;28;20480;-64
2021/12/14 11:27:18;;;;;;;7.55;5.22;;;;;;;;;;5068830;28;20020;-64
2021/12/14 11:29:44;;;;;;;7.22;5.45;;;;;;;;;;5051009;28;20037;-64
2021/12/14 11:32:15;;;;;;;7.32;5.40;;;;;;;;;;5068875;28;20027;-65
2021/12/14 11:34:40;;;;;;;8.65;6.18;;;;;;;;;;5068591;28;20040;-64
2021/12/14 11:37:14;;;;;;;9.25;5.80;;;;;;;;;;5049301;28;20025;-65
2021/12/14 11:39:51;;;;;;;9.52;6.03;;;;;;;;;;5047457;28;20066;-66
2021/12/14 11:42:19;;;;;;;7.05;5.13;;;;;;;;;;5049068;28;20392;-64
2021/12/14 11:44:47;;;;;;;7.57;5.00;;;;;;;;;;5066854;28;20028;-65
2021/12/14 11:50:03;;;;;;;9.50;5.50;;;;;;;;;;5063471;28;20589;-67
2021/12/14 11:52:38;;;;;;;8.23;5.15;;;;;;;;;;5066034;28;20039;-65
2021/12/14 11:55:23;;;;;;;9.00;4.82;;;;;;;;;;5066391;28;20040;-66
2021/12/14 11:57:59;;;;;;;7.43;5.22;;;;;;;;;;5066248;28;20480;-66
2021/12/14 12:00:25;;;;;;;7.47;5.40;;;;;;;;;;5066710;28;20568;-64
2021/12/14 12:02:50;;;;;;;7.25;5.40;;;;;;;;;;5066114;28;20100;-68
2021/12/14 12:05:18;;;;;;;8.63;5.60;;;;;;;;;;5066535;28;20406;-64
2021/12/14 12:10:47;;;;;;;12.63;5.57;;;;;;;;;;5064908;28;20041;-65
2021/12/14 12:13:13;;;;;;;9.52;5.90;;;;;;;;;;5067873;28;20094;-63
2021/12/14 12:15:43;;;;;;;8.07;5.80;;;;;;;;;;5068108;28;20064;-63
2021/12/14 12:18:08;;;;;;;10.45;5.70;;;;;;;;;;5068121;28;20547;-65
2021/12/14 12:20:38;;;;;;;10.73;6.30;;;;;;;;;;5068128;28;20120;-69
2021/12/14 12:23:08;;;;;;;8.38;5.55;;;;;;;;;;5068736;28;20044;-65
2021/12/14 12:26:09;;;;;;;10.20;6.10;;;;;;;;;;5068325;28;20056;-65
2021/12/14 12:28:40;;;;;;;9.73;5.88;;;;;;;;;;5040268;28;20052;-65
2021/12/14 12:31:11;;;;;;;8.07;5.47;;;;;;;;;;5067165;28;20129;-66
2021/12/14 12:33:41;;;;;;;8.90;5.80;;;;;;;;;;5068274;28;20050;-64
2021/12/14 12:36:15;;;;;;;8.98;5.60;;;;;;;;;;5068089;28;20032;-63
2021/12/14 12:38:55;;;;;;;10.07;5.65;;;;;;;;;;5067949;28;20043;-64
2021/12/14 12:41:25;;;;;;;6.50;5.18;;;;;;;;;;5067815;28;20715;-66
2021/12/14 12:43:53;;;;;;;8.45;5.05;;;;;;;;;;5066064;28;20028;-63
2021/12/14 12:46:21;;;;;;;10.48;6.32;;;;;;;;;;5048082;28;20075;-66
2021/12/14 12:48:49;;;;;;;12.23;5.93;;;;;;;;;;5065751;28;20016;-65
2021/12/14 12:51:34;;;;;;;9.05;5.57;;;;;;;;;;5066021;28;20586;-66
2021/12/14 12:54:09;;;;;;;10.27;6.20;;;;;;;;;;5065753;28;20119;-65
2021/12/14 12:56:37;;;;;;;12.70;5.57;;;;;;;;;;5066187;28;20032;-67
2021/12/14 12:59:03;;;;;;;8.68;5.57;;;;;;;;;;5067684;28;20060;-65
2021/12/14 13:01:28;;;;;;;10.35;5.85;;;;;;;;;;5067892;28;20122;-64
2021/12/14 13:03:55;;;;;;;10.45;5.50;;;;;;;;;;5067742;28;20460;-63
2021/12/14 13:06:22;;;;;;;10.90;5.10;;;;;;;;;;5070238;28;20036;-63
2021/12/14 13:08:51;;;;;;;8.90;5.18;;;;;;;;;;5070574;28;20081;-63
2021/12/14 13:11:18;;;;;;;10.07;5.40;;;;;;;;;;5053516;28;20384;-63
2021/12/14 13:13:43;;;;;;;8.30;4.70;;;;;;;;;;5071068;28;20082;-63
2021/12/14 13:16:09;;;;;;;7.47;4.75;;;;;;;;;;5069657;28;20430;-63
2021/12/14 13:18:36;;;;;;;8.90;4.90;;;;;;;;;;5071080;28;20036;-63
2021/12/14 13:21:08;;;;;;;7.95;4.80;;;;;;;;;;5053003;28;20036;-64
2021/12/14 13:23:42;;;;;;;9.02;4.60;;;;;;;;;;5070246;28;20036;-63
2021/12/14 13:26:33;;;;;;;6.00;4.15;;;;;;;;;;5049790;28;20476;-65
2021/12/14 13:29:19;;;;;;;13.65;4.78;;;;;;;;;;5044834;28;20051;-63
2021/12/14 13:31:44;;;;;;;13.88;4.10;;;;;;;;;;5063935;28;20479;-63
2021/12/14 13:34:12;;;;;;;11.77;5.75;;;;;;;;;;5069662;28;20031;-63
2021/12/14 13:36:39;;;;;;;9.88;6.40;;;;;;;;;;5068555;28;20131;-64
2021/12/14 13:39:06;;;;;;;12.23;6.65;;;;;;;;;;5068368;28;20086;-64
2021/12/14 13:41:40;;;;;;;10.93;6.53;;;;;;;;;;5068465;28;20036;-68
2021/12/14 13:44:06;;;;;;;10.00;5.75;;;;;;;;;;5068125;28;20048;-63
2021/12/14 13:46:31;;;;;;;10.98;6.57;;;;;;;;;;5067531;28;20041;-64
2021/12/14 13:48:57;;;;;;;9.02;4.80;;;;;;;;;;5067363;28;20242;-63
2021/12/14 13:51:26;;;;;;;9.38;6.15;;;;;;;;;;5068197;28;20040;-63
2021/12/14 13:53:55;;;;;;;8.90;5.68;;;;;;;;;;5070350;28;20064;-63
2021/12/14 13:56:39;;;;;;;11.02;5.25;;;;;;;;;;5070305;28;20021;-63
2021/12/14 13:59:06;;;;;;;8.15;4.47;;;;;;;;;;5068922;28;20040;-62
2021/12/14 14:01:34;;;;;;;6.78;3.78;;;;;;;;;;5066403;28;20441;-63
2021/12/14 14:04:02;;;;;;;9.35;4.55;;;;;;;;;;5058989;28;20028;-64
2021/12/14 14:06:28;;;;;;;11.02;4.18;;;;;;;;;;5058341;28;20041;-63
2021/12/14 14:09:01;;;;;;;6.78;4.05;;;;;;;;;;5052889;28;20079;-67
2021/12/14 14:11:26;;;;;;;10.55;4.55;;;;;;;;;;5054581;28;20032;-67
2021/12/14 14:13:53;;;;;;;9.00;4.60;;;;;;;;;;5055433;28;20495;-67
2021/12/14 14:16:19;;;;;;;7.53;4.25;;;;;;;;;;5060730;28;20034;-67
2021/12/14 14:18:47;;;;;;;7.65;4.30;;;;;;;;;;5050154;28;20685;-67
2021/12/14 14:21:17;;;;;;;6.68;4.38;;;;;;;;;;5063630;28;20027;-67
2021/12/14 14:23:47;;;;;;;6.88;4.60;;;;;;;;;;5069991;28;20032;-67
2021/12/14 14:26:15;;;;;;;7.25;4.60;;;;;;;;;;5068324;28;20051;-67
2021/12/14 14:28:44;;;;;;;9.77;4.55;;;;;;;;;;5069929;28;20040;-67
2021/12/14 14:31:11;;;;;;;7.15;4.80;;;;;;;;;;5070051;28;20037;-67
2021/12/14 14:33:46;;;;;;;11.48;4.30;;;;;;;;;;5069685;28;20032;-67
2021/12/14 14:36:27;;;;;;;12.18;4.65;;;;;;;;;;5070107;28;20043;-67
2021/12/14 14:39:01;;;;;;;13.32;4.82;;;;;;;;;;5069409;28;20044;-67
2021/12/14 14:41:28;;;;;;;13.90;5.32;;;;;;;;;;5069561;28;20040;-67
2021/12/14 14:44:00;;;;;;;15.98;6.80;;;;;;;;;;5069591;28;20034;-67
2021/12/14 14:46:37;;;;;;;12.38;5.60;;;;;;;;;;5069740;28;20098;-65
2021/12/14 14:49:13;;;;;;;12.68;6.25;;;;;;;;;;5065571;28;20487;-65
2021/12/14 14:51:47;;;;;;;11.23;6.13;;;;;;;;;;5069475;28;20365;-67
2021/12/14 14:54:34;;;;;;;17.10;7.82;;;;;;;;;;5069290;28;20059;-66
2021/12/14 14:57:08;;;;;;;17.75;8.68;;;;;;;;;;5068853;28;20055;-66
2021/12/14 14:59:34;;;;;;;21.27;9.10;;;;;;;;;;5068977;28;20028;-66
2021/12/14 15:02:00;;;;;;;19.02;8.38;;;;;;;;;;5068939;28;20036;-67
2021/12/14 15:04:26;;;;;;;15.40;8.30;;;;;;;;;;5069326;28;20024;-66
2021/12/14 15:06:53;;;;;;;13.25;7.05;;;;;;;;;;5068705;28;20037;-67
2021/12/14 15:09:25;;;;;;;12.30;6.13;;;;;;;;;;5069380;28;20166;-65
2021/12/14 15:11:55;;;;;;;12.73;5.90;;;;;;;;;;5068991;28;20487;-66
2021/12/14 15:14:37;;;;;;;11.48;5.65;;;;;;;;;;5069105;28;20032;-67
2021/12/14 15:17:11;;;;;;;13.60;6.30;;;;;;;;;;5069383;28;20288;-66
2021/12/14 15:19:39;;;;;;;15.60;6.47;;;;;;;;;;5069354;28;20072;-66
2021/12/14 15:22:04;;;;;;;13.73;6.63;;;;;;;;;;5051213;28;20059;-66
2021/12/14 15:24:50;;;;;;;10.07;5.88;;;;;;;;;;5068768;28;20059;-67
2021/12/14 15:27:17;;;;;;;13.68;6.03;;;;;;;;;;5054510;28;20129;-66
2021/12/14 15:29:44;;;;;;;15.00;6.75;;;;;;;;;;5068534;28;20502;-65
2021/12/14 15:32:12;;;;;;;15.63;6.88;;;;;;;;;;5045966;28;20112;-66
2021/12/14 15:34:56;;;;;;;19.65;7.45;;;;;;;;;;5048869;28;20496;-65
2021/12/14 15:37:39;;;;;;;14.65;7.55;;;;;;;;;;5049003;28;20079;-65
2021/12/14 15:40:24;;;;;;;17.27;8.52;;;;;;;;;;5047807;28;20037;-65